createdAt,value
2022-08-03T00:00:32.233Z,16.000000000000057
2022-08-03T00:01:32.154Z,16.000000000000057
2022-08-03T00:02:32.166Z,16.1111111111112
2022-08-03T00:03:32.312Z,16.1111111111112
2022-08-03T00:04:34.233Z,16.1111111111112
2022-08-03T00:05:32.130Z,16.1111111111112
2022-08-03T00:06:36.821Z,16.1111111111112
2022-08-03T00:07:32.174Z,16.000000000000057
2022-08-03T00:08:32.141Z,16.000000000000057
2022-08-03T00:09:35.495Z,16.000000000000057
2022-08-03T00:10:32.189Z,16.000000000000057
2022-08-03T00:11:32.135Z,16.000000000000057
2022-08-03T00:12:32.234Z,16.000000000000057
2022-08-03T00:13:32.144Z,16.000000000000057
2022-08-03T00:14:32.137Z,16.000000000000057
2022-08-03T00:15:32.140Z,16.000000000000057
2022-08-03T00:16:32.125Z,16.000000000000057
2022-08-03T00:17:52.607Z,16.1111111111112
2022-08-03T00:18:32.174Z,16.1111111111112
2022-08-03T00:19:32.113Z,16.1111111111112
2022-08-03T00:20:32.134Z,16.000000000000057
2022-08-03T00:21:32.171Z,16.000000000000057
2022-08-03T00:22:32.137Z,15.888888888888914
2022-08-03T00:23:50.831Z,15.888888888888914
2022-08-03T00:24:32.336Z,16.000000000000057
2022-08-03T00:25:32.136Z,16.000000000000057
2022-08-03T00:26:32.127Z,16.000000000000057
2022-08-03T00:27:32.569Z,16.000000000000057
2022-08-03T00:28:32.125Z,16.000000000000057
2022-08-03T00:29:32.126Z,16.000000000000057
2022-08-03T00:30:32.155Z,16.000000000000057
2022-08-03T00:31:44.941Z,16.000000000000057
2022-08-03T00:32:32.167Z,16.000000000000057
2022-08-03T00:33:32.153Z,16.000000000000057
2022-08-03T00:34:57.965Z,16.000000000000057
2022-08-03T00:35:37.142Z,16.000000000000057
2022-08-03T00:36:32.870Z,16.000000000000057
2022-08-03T00:37:40.962Z,16.000000000000057
2022-08-03T00:38:32.191Z,16.000000000000057
2022-08-03T00:39:32.147Z,16.000000000000057
2022-08-03T00:40:32.142Z,16.000000000000057
2022-08-03T00:41:32.129Z,16.000000000000057
2022-08-03T00:42:32.129Z,16.000000000000057
2022-08-03T00:43:32.174Z,16.000000000000057
2022-08-03T00:44:32.139Z,16.000000000000057
2022-08-03T00:45:32.095Z,15.888888888888914
2022-08-03T00:46:32.140Z,15.888888888888914
2022-08-03T00:47:32.142Z,15.888888888888914
2022-08-03T00:48:33.645Z,15.888888888888914
2022-08-03T00:49:32.166Z,15.888888888888914
2022-08-03T00:50:32.155Z,15.888888888888914
2022-08-03T00:51:32.159Z,15.888888888888914
2022-08-03T00:52:32.151Z,15.888888888888914
2022-08-03T00:53:32.544Z,15.888888888888914
2022-08-03T00:54:32.175Z,15.888888888888914
2022-08-03T00:55:32.147Z,15.888888888888914
2022-08-03T00:56:32.141Z,15.888888888888914
2022-08-03T00:57:32.094Z,15.888888888888914
2022-08-03T00:58:32.257Z,15.888888888888914
2022-08-03T00:59:32.136Z,15.888888888888914
2022-08-03T01:00:32.162Z,15.888888888888914
2022-08-03T01:01:32.707Z,15.888888888888914
2022-08-03T01:02:32.135Z,15.888888888888914
2022-08-03T01:03:32.150Z,15.777777777777828
2022-08-03T01:04:33.157Z,15.777777777777828
2022-08-03T01:05:32.130Z,15.777777777777828
2022-08-03T01:06:32.212Z,15.777777777777828
2022-08-03T01:07:32.158Z,15.777777777777828
2022-08-03T01:08:32.120Z,15.777777777777828
2022-08-03T01:09:32.126Z,15.777777777777828
2022-08-03T01:10:32.132Z,15.777777777777828
2022-08-03T01:11:32.157Z,15.722222222222285
2022-08-03T01:12:32.165Z,15.722222222222285
2022-08-03T01:14:01.462Z,15.722222222222285
2022-08-03T01:14:32.223Z,15.722222222222285
2022-08-03T01:15:32.131Z,15.722222222222285
2022-08-03T01:16:36.704Z,15.722222222222285
2022-08-03T01:17:32.131Z,15.722222222222285
2022-08-03T01:18:32.141Z,15.722222222222285
2022-08-03T01:19:32.192Z,15.611111111111143
2022-08-03T01:20:32.142Z,15.611111111111143
2022-08-03T01:21:32.105Z,15.611111111111143
2022-08-03T01:22:32.444Z,15.611111111111143
2022-08-03T01:23:32.125Z,15.500000000000057
2022-08-03T01:24:32.160Z,15.500000000000057
2022-08-03T01:25:32.132Z,15.500000000000057
2022-08-03T01:26:32.630Z,15.500000000000057
2022-08-03T01:27:32.106Z,15.500000000000057
2022-08-03T01:28:32.163Z,15.500000000000057
2022-08-03T01:29:32.162Z,15.500000000000057
2022-08-03T01:30:32.126Z,15.500000000000057
2022-08-03T01:31:32.116Z,15.388888888888914
2022-08-03T01:32:58.360Z,15.388888888888914
2022-08-03T01:33:32.214Z,15.388888888888914
2022-08-03T01:34:32.150Z,15.388888888888914
2022-08-03T01:35:32.113Z,15.277777777777828
2022-08-03T01:36:32.163Z,15.277777777777828
2022-08-03T01:37:32.155Z,15.277777777777828
2022-08-03T01:38:32.146Z,15.277777777777828
2022-08-03T01:39:32.205Z,15.277777777777828
2022-08-03T01:40:32.348Z,15.277777777777828
2022-08-03T01:41:32.303Z,15.277777777777828
2022-08-03T01:42:32.402Z,15.222222222222285
2022-08-03T01:44:26.193Z,15.222222222222285
2022-08-03T01:44:32.324Z,15.222222222222285
2022-08-03T01:45:34.156Z,15.222222222222285
2022-08-03T01:46:32.231Z,15.222222222222285
2022-08-03T01:47:32.220Z,15.222222222222285
2022-08-03T01:48:32.108Z,15.222222222222285
2022-08-03T01:49:32.233Z,15.222222222222285
2022-08-03T01:50:32.229Z,15.222222222222285
2022-08-03T01:52:04.119Z,15.222222222222285
2022-08-03T01:52:32.171Z,15.111111111111143
2022-08-03T01:53:32.208Z,15.111111111111143
2022-08-03T01:54:32.141Z,15.111111111111143
2022-08-03T01:55:32.118Z,15.111111111111143
2022-08-03T01:56:32.145Z,15.111111111111143
2022-08-03T01:57:32.140Z,15.111111111111143
2022-08-03T01:58:32.115Z,15.111111111111143
2022-08-03T01:59:32.124Z,15.111111111111143
2022-08-03T02:00:32.154Z,15.000000000000057
2022-08-03T02:02:32.270Z,15.000000000000057
2022-08-03T02:02:34.499Z,15.000000000000057
2022-08-03T02:03:32.189Z,15.000000000000057
2022-08-03T02:04:32.108Z,15.000000000000057
2022-08-03T02:05:32.164Z,15.000000000000057
2022-08-03T02:07:00.816Z,15.000000000000057
2022-08-03T02:07:32.260Z,15.000000000000057
2022-08-03T02:08:32.152Z,15.000000000000057
2022-08-03T02:09:32.163Z,15.000000000000057
2022-08-03T02:10:35.276Z,15.000000000000057
2022-08-03T02:11:32.115Z,15.111111111111143
2022-08-03T02:12:32.322Z,15.111111111111143
2022-08-03T02:13:32.122Z,15.111111111111143
2022-08-03T02:14:32.119Z,15.111111111111143
2022-08-03T02:15:32.825Z,15.111111111111143
2022-08-03T02:16:32.193Z,15.111111111111143
2022-08-03T02:17:39.124Z,15.111111111111143
2022-08-03T02:18:32.115Z,15.111111111111143
2022-08-03T02:19:35.615Z,15.111111111111143
2022-08-03T02:20:32.234Z,15.222222222222285
2022-08-03T02:21:57.091Z,15.222222222222285
2022-08-03T02:22:32.231Z,15.222222222222285
2022-08-03T02:23:32.155Z,15.222222222222285
2022-08-03T02:24:32.125Z,15.222222222222285
2022-08-03T02:25:32.140Z,15.222222222222285
2022-08-03T02:26:32.185Z,15.222222222222285
2022-08-03T02:27:32.355Z,15.222222222222285
2022-08-03T02:28:32.263Z,15.222222222222285
2022-08-03T02:29:39.368Z,15.222222222222285
2022-08-03T02:30:32.108Z,15.222222222222285
2022-08-03T02:31:32.254Z,15.222222222222285
2022-08-03T02:32:32.111Z,15.222222222222285
2022-08-03T02:33:32.128Z,15.222222222222285
2022-08-03T02:34:32.116Z,15.222222222222285
2022-08-03T02:35:32.176Z,15.222222222222285
2022-08-03T02:36:32.096Z,15.222222222222285
2022-08-03T02:37:32.125Z,15.222222222222285
2022-08-03T02:38:32.134Z,15.222222222222285
2022-08-03T02:39:32.139Z,15.222222222222285
2022-08-03T02:40:32.218Z,15.277777777777828
2022-08-03T02:41:32.123Z,15.277777777777828
2022-08-03T02:42:32.109Z,15.277777777777828
2022-08-03T02:43:41.257Z,15.277777777777828
2022-08-03T02:44:32.187Z,15.277777777777828
2022-08-03T02:45:32.140Z,15.277777777777828
2022-08-03T02:46:32.109Z,15.277777777777828
2022-08-03T02:47:53.295Z,15.277777777777828
2022-08-03T02:48:32.189Z,15.277777777777828
2022-08-03T02:49:41.037Z,15.277777777777828
2022-08-03T02:50:32.146Z,15.277777777777828
2022-08-03T02:51:32.119Z,15.277777777777828
2022-08-03T02:52:32.095Z,15.277777777777828
2022-08-03T02:53:32.105Z,15.277777777777828
2022-08-03T02:54:32.110Z,15.277777777777828
2022-08-03T02:55:32.117Z,15.222222222222285
2022-08-03T02:56:32.125Z,15.222222222222285
2022-08-03T02:57:32.143Z,15.222222222222285
2022-08-03T02:58:32.080Z,15.222222222222285
2022-08-03T02:59:32.110Z,15.222222222222285
2022-08-03T03:00:32.304Z,15.222222222222285
2022-08-03T03:01:32.207Z,15.222222222222285
2022-08-03T03:02:32.123Z,15.222222222222285
2022-08-03T03:03:33.859Z,15.222222222222285
2022-08-03T03:04:33.252Z,15.222222222222285
2022-08-03T03:05:54.897Z,15.222222222222285
2022-08-03T03:06:32.279Z,15.222222222222285
2022-08-03T03:07:33.922Z,15.222222222222285
2022-08-03T03:08:32.139Z,15.222222222222285
2022-08-03T03:09:40.189Z,15.222222222222285
2022-08-03T03:10:32.223Z,15.222222222222285
2022-08-03T03:11:32.251Z,15.222222222222285
2022-08-03T03:12:32.263Z,15.277777777777828
2022-08-03T03:13:32.221Z,15.277777777777828
2022-08-03T03:14:33.542Z,15.277777777777828
2022-08-03T03:15:32.225Z,15.277777777777828
2022-08-03T03:16:32.352Z,15.277777777777828
2022-08-03T03:17:32.213Z,15.277777777777828
2022-08-03T03:18:32.233Z,15.277777777777828
2022-08-03T03:19:32.346Z,15.277777777777828
2022-08-03T03:20:32.128Z,15.277777777777828
2022-08-03T03:21:32.295Z,15.277777777777828
2022-08-03T03:22:32.175Z,15.277777777777828
2022-08-03T03:23:32.367Z,15.277777777777828
2022-08-03T03:24:32.322Z,15.277777777777828
2022-08-03T03:25:32.218Z,15.277777777777828
2022-08-03T03:26:32.286Z,15.277777777777828
2022-08-03T03:27:32.158Z,15.222222222222285
2022-08-03T03:28:32.123Z,15.222222222222285
2022-08-03T03:29:32.123Z,15.222222222222285
2022-08-03T03:30:32.105Z,15.222222222222285
2022-08-03T03:31:32.100Z,15.222222222222285
2022-08-03T03:32:32.260Z,15.111111111111143
2022-08-03T03:33:32.146Z,15.111111111111143
2022-08-03T03:34:32.324Z,15.111111111111143
2022-08-03T03:35:32.124Z,15.111111111111143
2022-08-03T03:36:32.139Z,15.111111111111143
2022-08-03T03:37:32.242Z,15.111111111111143
2022-08-03T03:38:32.140Z,15.111111111111143
2022-08-03T03:39:32.094Z,15.111111111111143
2022-08-03T03:40:32.199Z,15.111111111111143
2022-08-03T03:41:33.900Z,15.111111111111143
2022-08-03T03:42:32.263Z,15.111111111111143
2022-08-03T03:43:32.115Z,15.111111111111143
2022-08-03T03:44:32.230Z,15.000000000000057
2022-08-03T03:45:32.745Z,15.000000000000057
2022-08-03T03:46:32.175Z,15.000000000000057
2022-08-03T03:47:32.970Z,15.000000000000057
2022-08-03T03:48:32.322Z,15.000000000000057
2022-08-03T03:49:32.188Z,15.000000000000057
2022-08-03T03:50:32.083Z,15.000000000000057
2022-08-03T03:51:32.102Z,15.000000000000057
2022-08-03T03:52:32.120Z,15.000000000000057
2022-08-03T03:53:32.094Z,15.000000000000057
2022-08-03T03:54:32.120Z,15.000000000000057
2022-08-03T03:55:32.132Z,15.000000000000057
2022-08-03T03:56:32.115Z,15.000000000000057
2022-08-03T03:57:32.124Z,15.000000000000057
2022-08-03T03:58:32.132Z,15.000000000000057
2022-08-03T03:59:32.130Z,15.000000000000057
2022-08-03T04:00:32.284Z,15.000000000000057
2022-08-03T04:01:32.132Z,15.000000000000057
2022-08-03T04:02:32.458Z,15.000000000000057
2022-08-03T04:03:32.092Z,15.000000000000057
2022-08-03T04:04:32.124Z,15.000000000000057
2022-08-03T04:05:32.115Z,15.000000000000057
2022-08-03T04:06:32.219Z,15.000000000000057
2022-08-03T04:07:32.107Z,15.000000000000057
2022-08-03T04:08:32.174Z,15.000000000000057
2022-08-03T04:09:32.125Z,15.000000000000057
2022-08-03T04:10:32.092Z,15.000000000000057
2022-08-03T04:11:32.230Z,15.000000000000057
2022-08-03T04:12:32.237Z,15.000000000000057
2022-08-03T04:13:32.116Z,15.000000000000057
2022-08-03T04:14:32.176Z,15.000000000000057
2022-08-03T04:15:32.110Z,15.111111111111143
2022-08-03T04:16:32.198Z,15.111111111111143
2022-08-03T04:17:32.115Z,15.111111111111143
2022-08-03T04:18:32.673Z,15.222222222222285
2022-08-03T04:19:32.111Z,15.277777777777828
2022-08-03T04:20:32.107Z,15.277777777777828
2022-08-03T04:21:32.123Z,15.388888888888914
2022-08-03T04:22:32.102Z,15.388888888888914
2022-08-03T04:23:32.118Z,15.500000000000057
2022-08-03T04:24:32.119Z,15.500000000000057
2022-08-03T04:25:32.107Z,15.500000000000057
2022-08-03T04:26:32.224Z,15.611111111111143
2022-08-03T04:27:32.102Z,15.611111111111143
2022-08-03T04:28:32.199Z,15.722222222222285
2022-08-03T04:29:32.104Z,15.777777777777828
2022-08-03T04:30:32.120Z,15.777777777777828
2022-08-03T04:31:32.220Z,15.888888888888914
2022-08-03T04:32:32.103Z,16.000000000000057
2022-08-03T04:33:32.333Z,16.000000000000057
2022-08-03T04:34:32.152Z,16.000000000000057
2022-08-03T04:36:02.266Z,16.000000000000057
2022-08-03T04:36:32.198Z,16.000000000000057
2022-08-03T04:37:32.141Z,16.1111111111112
2022-08-03T04:38:32.127Z,16.1111111111112
2022-08-03T04:39:32.135Z,16.1111111111112
2022-08-03T04:40:32.143Z,16.1111111111112
2022-08-03T04:41:32.115Z,16.1111111111112
2022-08-03T04:42:32.155Z,16.1111111111112
2022-08-03T04:43:32.603Z,16.222222222222285
2022-08-03T04:44:32.119Z,16.222222222222285
2022-08-03T04:45:32.109Z,16.222222222222285
2022-08-03T04:46:32.211Z,16.222222222222285
2022-08-03T04:47:32.164Z,16.222222222222285
2022-08-03T04:48:32.128Z,16.222222222222285
2022-08-03T04:49:32.180Z,16.222222222222285
2022-08-03T04:50:32.115Z,16.222222222222285
2022-08-03T04:51:32.114Z,16.27777777777783
2022-08-03T04:52:32.246Z,16.27777777777783
2022-08-03T04:53:32.138Z,16.27777777777783
2022-08-03T04:54:32.093Z,16.38888888888897
2022-08-03T04:55:32.085Z,16.38888888888897
2022-08-03T04:56:32.189Z,16.38888888888897
2022-08-03T04:57:32.110Z,16.38888888888897
2022-08-03T04:58:32.115Z,16.500000000000057
2022-08-03T04:59:32.077Z,16.500000000000057
2022-08-03T05:00:32.113Z,16.500000000000057
2022-08-03T05:01:32.184Z,16.500000000000057
2022-08-03T05:02:32.384Z,16.500000000000057
2022-08-03T05:03:32.098Z,16.500000000000057
2022-08-03T05:04:32.144Z,16.500000000000057
2022-08-03T05:05:37.831Z,16.500000000000057
2022-08-03T05:06:32.188Z,16.500000000000057
2022-08-03T05:07:36.144Z,16.500000000000057
2022-08-03T05:08:32.099Z,16.500000000000057
2022-08-03T05:09:50.796Z,16.500000000000057
2022-08-03T05:10:32.245Z,16.500000000000057
2022-08-03T05:11:32.144Z,16.500000000000057
2022-08-03T05:12:33.071Z,16.500000000000057
2022-08-03T05:13:32.086Z,16.500000000000057
2022-08-03T05:14:32.137Z,16.500000000000057
2022-08-03T05:15:32.206Z,16.500000000000057
2022-08-03T05:16:32.258Z,16.6111111111112
2022-08-03T05:17:32.289Z,16.6111111111112
2022-08-03T05:18:32.117Z,16.6111111111112
2022-08-03T05:19:32.090Z,16.6111111111112
2022-08-03T05:20:32.105Z,16.6111111111112
2022-08-03T05:21:51.800Z,16.72222222222223
2022-08-03T05:22:32.237Z,16.72222222222223
2022-08-03T05:23:32.128Z,16.72222222222223
2022-08-03T05:24:32.139Z,16.72222222222223
2022-08-03T05:25:32.268Z,16.72222222222223
2022-08-03T05:26:32.207Z,16.77777777777783
2022-08-03T05:27:32.090Z,16.77777777777783
2022-08-03T05:28:32.115Z,16.77777777777783
2022-08-03T05:29:32.099Z,16.77777777777783
2022-08-03T05:30:34.388Z,16.88888888888897
2022-08-03T05:31:32.170Z,16.88888888888897
2022-08-03T05:32:32.157Z,16.88888888888897
2022-08-03T05:33:32.121Z,16.88888888888897
2022-08-03T05:34:32.129Z,16.88888888888897
2022-08-03T05:35:57.921Z,16.88888888888897
2022-08-03T05:36:32.164Z,17
2022-08-03T05:37:32.203Z,17
2022-08-03T05:38:35.004Z,17
2022-08-03T05:39:32.131Z,17
2022-08-03T05:40:32.119Z,17
2022-08-03T05:41:36.513Z,17
2022-08-03T05:42:32.085Z,17
2022-08-03T05:43:32.101Z,17
2022-08-03T05:44:32.164Z,17
2022-08-03T05:45:32.104Z,17
2022-08-03T05:46:32.108Z,17.111111111111143
2022-08-03T05:47:32.224Z,17.111111111111143
2022-08-03T05:48:32.093Z,17.111111111111143
2022-08-03T05:49:32.172Z,17.111111111111143
2022-08-03T05:50:32.576Z,17.222222222222285
2022-08-03T05:51:32.107Z,17.222222222222285
2022-08-03T05:52:32.133Z,17.222222222222285
2022-08-03T05:53:32.501Z,17.222222222222285
2022-08-03T05:54:56.962Z,17.222222222222285
2022-08-03T05:55:32.247Z,17.27777777777783
2022-08-03T05:56:32.117Z,17.27777777777783
2022-08-03T05:57:32.102Z,17.27777777777783
2022-08-03T05:58:32.116Z,17.27777777777783
2022-08-03T05:59:38.413Z,17.388888888888914
2022-08-03T06:00:32.115Z,17.388888888888914
2022-08-03T06:01:32.158Z,17.500000000000057
2022-08-03T06:02:32.109Z,17.611111111111143
2022-08-03T06:03:32.165Z,17.611111111111143
2022-08-03T06:04:32.231Z,17.722222222222285
2022-08-03T06:05:33.080Z,17.722222222222285
2022-08-03T06:06:32.388Z,17.722222222222285
2022-08-03T06:07:32.171Z,17.722222222222285
2022-08-03T06:08:32.306Z,17.722222222222285
2022-08-03T06:10:36.753Z,17.722222222222285
2022-08-03T06:10:37.095Z,17.722222222222285
2022-08-03T06:11:32.092Z,17.722222222222285
2022-08-03T06:12:32.252Z,17.722222222222285
2022-08-03T06:13:32.081Z,17.722222222222285
2022-08-03T06:14:32.128Z,17.77777777777783
2022-08-03T06:15:32.199Z,17.77777777777783
2022-08-03T06:16:32.102Z,17.77777777777783
2022-08-03T06:17:37.649Z,17.77777777777783
2022-08-03T06:18:32.112Z,17.77777777777783
2022-08-03T06:19:32.113Z,17.77777777777783
2022-08-03T06:20:32.098Z,17.77777777777783
2022-08-03T06:21:32.075Z,17.77777777777783
2022-08-03T06:22:32.098Z,17.77777777777783
2022-08-03T06:23:53.167Z,17.77777777777783
2022-08-03T06:24:32.153Z,17.77777777777783
2022-08-03T06:25:32.175Z,17.77777777777783
2022-08-03T06:26:32.096Z,17.77777777777783
2022-08-03T06:27:36.872Z,17.77777777777783
2022-08-03T06:28:53.265Z,17.77777777777783
2022-08-03T06:29:32.204Z,17.77777777777783
2022-08-03T06:30:32.475Z,17.77777777777783
2022-08-03T06:31:32.721Z,17.77777777777783
2022-08-03T06:32:32.588Z,17.77777777777783
2022-08-03T06:33:48.575Z,17.77777777777783
2022-08-03T06:34:35.571Z,17.77777777777783
2022-08-03T06:35:32.136Z,17.77777777777783
2022-08-03T06:36:32.095Z,17.77777777777783
2022-08-03T06:37:32.088Z,17.77777777777783
2022-08-03T06:38:32.132Z,17.722222222222285
2022-08-03T06:39:32.117Z,17.722222222222285
2022-08-03T06:40:32.112Z,17.77777777777783
2022-08-03T06:41:38.222Z,17.77777777777783
2022-08-03T06:42:32.085Z,17.77777777777783
2022-08-03T06:43:35.733Z,17.77777777777783
2022-08-03T06:44:32.114Z,17.722222222222285
2022-08-03T06:45:32.319Z,17.722222222222285
2022-08-03T06:46:32.108Z,17.722222222222285
2022-08-03T06:47:32.096Z,17.77777777777783
2022-08-03T06:48:32.111Z,17.77777777777783
2022-08-03T06:49:32.161Z,17.77777777777783
2022-08-03T06:50:32.128Z,17.77777777777783
2022-08-03T06:52:06.127Z,17.77777777777783
2022-08-03T06:52:37.682Z,17.77777777777783
2022-08-03T06:53:32.111Z,17.77777777777783
2022-08-03T06:54:33.241Z,17.77777777777783
2022-08-03T06:55:32.093Z,17.77777777777783
2022-08-03T06:56:32.041Z,17.888888888888914
2022-08-03T06:57:32.106Z,18.000000000000057
2022-08-03T06:58:32.114Z,18.000000000000057
2022-08-03T07:00:07.823Z,18.000000000000057
2022-08-03T07:00:32.233Z,18.000000000000057
2022-08-03T07:01:32.250Z,18.111111111111143
2022-08-03T07:02:32.096Z,18.111111111111143
2022-08-03T07:03:32.129Z,18.222222222222285
2022-08-03T07:04:32.107Z,18.222222222222285
2022-08-03T07:05:32.114Z,18.222222222222285
2022-08-03T07:06:32.108Z,18.27777777777783
2022-08-03T07:07:32.158Z,18.27777777777783
2022-08-03T07:08:33.864Z,18.27777777777783
2022-08-03T07:09:32.124Z,18.27777777777783
2022-08-03T07:10:32.187Z,18.27777777777783
2022-08-03T07:11:32.104Z,18.27777777777783
2022-08-03T07:12:32.077Z,18.27777777777783
2022-08-03T07:13:32.100Z,18.27777777777783
2022-08-03T07:14:32.228Z,18.388888888888914
2022-08-03T07:15:54.516Z,18.388888888888914
2022-08-03T07:16:32.202Z,18.388888888888914
2022-08-03T07:17:32.093Z,18.27777777777783
2022-08-03T07:18:32.075Z,18.27777777777783
2022-08-03T07:19:32.138Z,18.27777777777783
2022-08-03T07:20:32.736Z,18.27777777777783
2022-08-03T07:21:32.085Z,18.222222222222285
2022-08-03T07:22:32.098Z,18.222222222222285
2022-08-03T07:23:32.186Z,18.222222222222285
2022-08-03T07:24:32.333Z,18.222222222222285
2022-08-03T07:25:32.131Z,18.222222222222285
2022-08-03T07:26:32.213Z,18.222222222222285
2022-08-03T07:27:32.087Z,18.27777777777783
2022-08-03T07:28:32.097Z,18.27777777777783
2022-08-03T07:29:34.675Z,18.27777777777783
2022-08-03T07:30:32.226Z,18.388888888888914
2022-08-03T07:31:34.382Z,18.388888888888914
2022-08-03T07:32:32.260Z,18.388888888888914
2022-08-03T07:33:32.241Z,18.388888888888914
2022-08-03T07:34:32.136Z,18.500000000000057
2022-08-03T07:35:32.090Z,18.500000000000057
2022-08-03T07:36:33.330Z,18.6111111111112
2022-08-03T07:37:32.071Z,18.722222222222285
2022-08-03T07:38:32.104Z,18.722222222222285
2022-08-03T07:39:32.081Z,18.88888888888897
2022-08-03T07:40:32.269Z,19.22222222222223
2022-08-03T07:41:32.290Z,19.5
2022-08-03T07:42:32.100Z,19.611111111111143
2022-08-03T07:43:32.085Z,19.722222222222285
2022-08-03T07:44:32.095Z,19.722222222222285
2022-08-03T07:45:32.100Z,19.722222222222285
2022-08-03T07:46:32.130Z,19.888888888888914
2022-08-03T07:47:35.006Z,20.111111111111143
2022-08-03T07:48:32.077Z,20.111111111111143
2022-08-03T07:49:32.179Z,20.27777777777783
2022-08-03T07:50:32.153Z,20.388888888888914
2022-08-03T07:51:32.068Z,20.500000000000057
2022-08-03T07:52:32.096Z,20.500000000000057
2022-08-03T07:53:32.106Z,20.388888888888914
2022-08-03T07:54:33.322Z,20.388888888888914
2022-08-03T07:55:32.058Z,20.500000000000057
2022-08-03T07:56:32.113Z,20.888888888888914
2022-08-03T07:57:32.088Z,21.000000000000057
2022-08-03T07:58:32.115Z,21.1111111111112
2022-08-03T07:59:49.068Z,21.1111111111112
2022-08-03T08:00:32.250Z,20.888888888888914
2022-08-03T08:01:32.181Z,20.500000000000057
2022-08-03T08:02:32.107Z,20.500000000000057
2022-08-03T08:03:41.132Z,20.388888888888914
2022-08-03T08:04:32.153Z,20.388888888888914
2022-08-03T08:05:32.167Z,20.500000000000057
2022-08-03T08:06:32.117Z,20.611111111111143
2022-08-03T08:07:32.122Z,20.611111111111143
2022-08-03T08:08:32.131Z,20.611111111111143
2022-08-03T08:09:32.089Z,20.611111111111143
2022-08-03T08:10:32.145Z,20.611111111111143
2022-08-03T08:11:33.983Z,20.611111111111143
2022-08-03T08:12:32.102Z,20.500000000000057
2022-08-03T08:13:32.203Z,20.27777777777783
2022-08-03T08:14:32.085Z,20.222222222222285
2022-08-03T08:15:32.149Z,20.222222222222285
2022-08-03T08:16:32.092Z,20.388888888888914
2022-08-03T08:17:32.078Z,20.388888888888914
2022-08-03T08:18:32.119Z,20.500000000000057
2022-08-03T08:19:32.082Z,20.388888888888914
2022-08-03T08:20:32.306Z,20.388888888888914
2022-08-03T08:21:53.723Z,20.388888888888914
2022-08-03T08:22:32.165Z,20.388888888888914
2022-08-03T08:23:44.808Z,20.500000000000057
2022-08-03T08:24:32.185Z,20.611111111111143
2022-08-03T08:25:32.221Z,20.611111111111143
2022-08-03T08:26:32.068Z,20.611111111111143
2022-08-03T08:28:29.926Z,20.611111111111143
2022-08-03T08:28:33.685Z,20.611111111111143
2022-08-03T08:29:32.468Z,20.722222222222285
2022-08-03T08:30:32.097Z,20.722222222222285
2022-08-03T08:31:32.090Z,20.500000000000057
2022-08-03T08:32:32.101Z,20.388888888888914
2022-08-03T08:33:48.320Z,20.388888888888914
2022-08-03T08:34:32.382Z,20.611111111111143
2022-08-03T08:35:32.108Z,20.611111111111143
2022-08-03T08:36:32.086Z,20.722222222222285
2022-08-03T08:37:32.076Z,20.722222222222285
2022-08-03T08:38:32.076Z,20.77777777777783
2022-08-03T08:39:32.138Z,20.888888888888914
2022-08-03T08:40:32.127Z,20.888888888888914
2022-08-03T08:41:32.443Z,20.888888888888914
2022-08-03T08:42:32.157Z,20.888888888888914
2022-08-03T08:43:32.081Z,20.888888888888914
2022-08-03T08:44:32.239Z,21.000000000000057
2022-08-03T08:45:32.113Z,21.000000000000057
2022-08-03T08:46:32.138Z,21.000000000000057
2022-08-03T08:47:51.000Z,21.000000000000057
2022-08-03T08:48:32.120Z,20.888888888888914
2022-08-03T08:49:32.145Z,20.888888888888914
2022-08-03T08:50:32.105Z,20.888888888888914
2022-08-03T08:51:54.396Z,20.888888888888914
2022-08-03T08:52:32.328Z,20.888888888888914
2022-08-03T08:53:32.104Z,20.888888888888914
2022-08-03T08:54:32.091Z,20.888888888888914
2022-08-03T08:55:58.390Z,21.1111111111112
2022-08-03T08:56:32.160Z,21.222222222222285
2022-08-03T08:58:32.083Z,21.27777777777783
2022-08-03T08:59:49.050Z,21.222222222222285
2022-08-03T09:00:32.168Z,21.1111111111112
2022-08-03T09:01:33.100Z,21.000000000000057
2022-08-03T09:02:33.333Z,21.000000000000057
2022-08-03T09:03:32.070Z,21.1111111111112
2022-08-03T09:04:32.093Z,21.1111111111112
2022-08-03T09:05:54.923Z,21.1111111111112
2022-08-03T09:06:32.196Z,21.1111111111112
2022-08-03T09:07:32.301Z,21.222222222222285
2022-08-03T09:08:32.099Z,21.38888888888897
2022-08-03T09:10:11.838Z,21.500000000000057
2022-08-03T09:10:32.169Z,21.6111111111112
2022-08-03T09:11:51.752Z,21.88888888888897
2022-08-03T09:12:41.397Z,22.111111111111143